Time;durP1;ratioP1;P1;durP2;ratioP2;P2;SDS_P1;SDS_P2;PMS_P1;PMS_P2;Temp;Humidity;BMP_temperature;BMP_pressure;BME280_temperature;BME280_humidity;BME280_pressure;Samples;Min_cycle;Max_cycle;Signal;HPM_P1;HPM_P2
2022/06/23 00:00:56;;;;;;;3.67;2.53;;;20.60;98.00;;;;;;5032584;28;20486;-71
2022/06/23 00:03:24;;;;;;;3.10;2.43;;;20.60;98.00;;;;;;5032711;28;20524;-71
2022/06/23 00:05:56;;;;;;;3.27;2.30;;;20.60;98.00;;;;;;5032499;28;20688;-71
2022/06/23 00:08:25;;;;;;;10.30;2.97;;;20.60;98.00;;;;;;5032614;28;20525;-71
2022/06/23 00:10:55;;;;;;;4.00;2.80;;;20.60;98.00;;;;;;5032370;28;20458;-71
2022/06/23 00:13:26;;;;;;;2.77;2.17;;;20.70;98.00;;;;;;5031993;28;20557;-71
2022/06/23 00:15:55;;;;;;;5.60;3.00;;;20.80;98.00;;;;;;5032043;28;20461;-71
2022/06/23 00:18:24;;;;;;;5.57;3.30;;;20.70;98.00;;;;;;5032017;28;20871;-71
2022/06/23 00:20:54;;;;;;;4.50;3.00;;;20.50;98.00;;;;;;5032119;28;20487;-71
2022/06/23 00:23:24;;;;;;;4.33;2.83;;;20.60;98.00;;;;;;5031970;28;20466;-71
2022/06/23 00:25:58;;;;;;;6.10;3.13;;;20.60;98.00;;;;;;5031940;28;20465;-71
2022/06/23 00:28:28;;;;;;;4.40;2.67;;;20.60;98.00;;;;;;5032094;28;20461;-71
2022/06/23 00:31:02;;;;;;;3.17;2.33;;;20.50;98.00;;;;;;5031837;28;20473;-71
2022/06/23 00:33:32;;;;;;;4.13;2.90;;;20.30;98.00;;;;;;5031928;28;20462;-71
2022/06/23 00:36:02;;;;;;;4.73;2.83;;;20.30;98.00;;;;;;5031673;28;20957;-71
2022/06/23 00:38:37;;;;;;;3.13;2.70;;;20.20;98.00;;;;;;5031762;28;20467;-71
2022/06/23 00:41:15;;;;;;;3.87;2.80;;;20.20;98.00;;;;;;5030420;28;20485;-71
2022/06/23 00:43:45;;;;;;;3.30;2.63;;;20.10;98.00;;;;;;5031803;28;20457;-71
2022/06/23 00:46:20;;;;;;;4.67;2.80;;;20.10;98.00;;;;;;5031533;28;20458;-71
2022/06/23 00:48:52;;;;;;;4.43;2.77;;;20.10;98.00;;;;;;5031647;28;20458;-71
2022/06/23 00:51:24;;;;;;;4.03;2.80;;;20.00;98.00;;;;;;5031457;28;20465;-71
2022/06/23 00:53:58;;;;;;;3.70;2.73;;;20.00;98.00;;;;;;5031575;28;20524;-71
2022/06/23 00:56:41;;;;;;;3.50;2.90;;;19.90;98.00;;;;;;5030203;28;20873;-71
2022/06/23 00:59:15;;;;;;;4.33;2.97;;;19.80;98.00;;;;;;5031495;28;20462;-71
2022/06/23 01:01:47;;;;;;;4.00;2.80;;;19.70;98.00;;;;;;5031665;28;20487;-71
2022/06/23 01:04:27;;;;;;;5.20;3.00;;;19.80;98.00;;;;;;5031469;28;20807;-71
2022/06/23 01:07:00;;;;;;;2.63;2.30;;;19.70;98.00;;;;;;5031391;28;20450;-71
2022/06/23 01:09:34;;;;;;;3.50;2.57;;;19.60;98.00;;;;;;5031283;28;20458;-71
2022/06/23 01:12:07;;;;;;;2.93;2.40;;;19.60;98.00;;;;;;5030017;28;20971;-71
2022/06/23 01:14:42;;;;;;;4.13;2.60;;;19.60;98.00;;;;;;5031070;28;20462;-71
2022/06/23 01:17:16;;;;;;;2.90;2.63;;;19.60;98.00;;;;;;5031504;28;20979;-71
2022/06/23 01:20:10;;;;;;;3.10;2.10;;;19.50;98.00;;;;;;5031149;28;20521;-71
2022/06/23 01:22:58;;;;;;;3.67;2.53;;;19.40;98.00;;;;;;5031242;28;20461;-71
2022/06/23 01:25:42;;;;;;;4.13;2.80;;;19.30;98.00;;;;;;5031163;28;20830;-71
2022/06/23 01:28:15;;;;;;;2.80;2.40;;;19.40;98.00;;;;;;5030024;28;20465;-71
2022/06/23 01:30:51;;;;;;;7.37;2.97;;;19.40;98.00;;;;;;5031006;28;20980;-71
2022/06/23 01:33:25;;;;;;;6.10;2.87;;;19.40;98.00;;;;;;5031306;28;20465;-71
2022/06/23 01:36:00;;;;;;;6.97;2.30;;;19.30;98.00;;;;;;5031008;28;20470;-71
2022/06/23 01:38:38;;;;;;;2.80;2.30;;;19.30;98.00;;;;;;5031179;28;20471;-71
2022/06/23 01:41:12;;;;;;;10.10;2.33;;;19.40;98.00;;;;;;5030809;28;20489;-71
2022/06/23 01:43:43;;;;;;;4.83;2.60;;;19.30;98.00;;;;;;5031281;28;20492;-71
2022/06/23 01:46:16;;;;;;;3.90;2.40;;;19.30;98.00;;;;;;5029684;28;20468;-71
2022/06/23 01:48:54;;;;;;;2.33;2.07;;;19.20;98.00;;;;;;5030952;28;20466;-71
2022/06/23 01:51:25;;;;;;;4.33;2.40;;;19.30;98.00;;;;;;5030958;28;20467;-71
2022/06/23 01:53:54;;;;;;;2.97;2.10;;;19.50;98.00;;;;;;5029763;28;20803;-71
2022/06/23 01:56:35;;;;;;;4.07;2.87;;;19.40;98.00;;;;;;5030841;28;20454;-71
2022/06/23 01:59:18;;;;;;;3.73;2.47;;;19.30;98.00;;;;;;5030951;28;20457;-71
2022/06/23 02:01:51;;;;;;;3.63;2.17;;;19.10;98.00;;;;;;5031238;28;20486;-71
2022/06/23 02:04:26;;;;;;;3.47;3.10;;;19.20;98.00;;;;;;5030824;28;20466;-71
2022/06/23 02:06:57;;;;;;;2.90;2.30;;;19.20;98.00;;;;;;5030783;28;20454;-71
2022/06/23 02:09:32;;;;;;;4.30;2.83;;;19.10;98.00;;;;;;5031488;28;20450;-71
2022/06/23 02:12:02;;;;;;;3.20;2.20;;;19.10;98.00;;;;;;5033402;28;20450;-71
2022/06/23 02:14:59;;;;;;;3.80;2.37;;;19.00;98.00;;;;;;5034197;28;20470;-71
2022/06/23 02:17:45;;;;;;;4.20;2.87;;;19.00;98.00;;;;;;5021825;28;20544;-71
2022/06/23 02:20:33;;;;;;;3.27;2.37;;;19.00;98.00;;;;;;5032982;28;20474;-71
2022/06/23 02:23:09;;;;;;;3.33;2.60;;;18.90;98.00;;;;;;5034201;28;20556;-71
2022/06/23 02:25:42;;;;;;;8.03;2.67;;;18.90;98.00;;;;;;5034381;28;20463;-71
2022/06/23 02:28:13;;;;;;;2.80;2.23;;;19.10;98.00;;;;;;5034174;28;20454;-71
2022/06/23 02:30:45;;;;;;;5.10;2.30;;;19.20;98.00;;;;;;5034507;28;20450;-71
2022/06/23 02:33:22;;;;;;;3.30;2.50;;;19.20;98.00;;;;;;5034018;28;20489;-71
2022/06/23 02:35:57;;;;;;;3.30;2.33;;;19.10;98.00;;;;;;5034131;28;20465;-71
2022/06/23 02:38:29;;;;;;;5.10;3.07;;;19.10;98.00;;;;;;5033993;28;20465;-71
2022/06/23 02:40:58;;;;;;;3.27;2.23;;;19.00;98.00;;;;;;5033851;28;20488;-71
2022/06/23 02:43:29;;;;;;;3.53;2.60;;;19.00;98.00;;;;;;5033898;28;20455;-70
2022/06/23 02:46:32;;;;;;;7.23;2.60;;;19.00;98.00;;;;;;5033947;28;20461;-71
2022/06/23 02:49:38;;;;;;;4.20;2.30;;;19.10;98.00;;;;;;5033800;28;20473;-71
2022/06/23 02:52:33;;;;;;;4.27;2.70;;;19.10;98.00;;;;;;5033543;28;20465;-71
2022/06/23 02:55:33;;;;;;;3.00;2.30;;;18.90;98.00;;;;;;5032586;28;20465;-71
2022/06/23 02:58:05;;;;;;;3.63;2.13;;;18.90;98.00;;;;;;5033879;28;20466;-71
2022/06/23 03:00:42;;;;;;;2.23;1.97;;;18.80;98.00;;;;;;5033653;28;20467;-71
2022/06/23 03:03:18;;;;;;;4.17;2.17;;;18.80;98.00;;;;;;5033668;28;20470;-71
2022/06/23 03:05:52;;;;;;;2.23;1.93;;;18.80;98.00;;;;;;5033570;28;20477;-71
2022/06/23 03:08:32;;;;;;;2.70;2.30;;;18.90;98.00;;;;;;5033410;28;20480;-71
2022/06/23 03:11:05;;;;;;;2.60;2.30;;;19.00;98.00;;;;;;5032011;28;20463;-71
2022/06/23 03:13:41;;;;;;;2.80;2.47;;;19.00;98.00;;;;;;5033221;28;20557;-71
2022/06/23 03:16:16;;;;;;;4.50;2.50;;;19.00;98.00;;;;;;5033312;28;20470;-71
2022/06/23 03:18:52;;;;;;;3.03;2.40;;;18.90;98.00;;;;;;5033295;28;20461;-71
2022/06/23 03:21:24;;;;;;;2.70;2.17;;;18.90;98.00;;;;;;5032538;28;20485;-71
2022/06/23 03:23:57;;;;;;;5.10;2.93;;;18.90;98.00;;;;;;5033430;28;20474;-71
2022/06/23 03:26:30;;;;;;;4.10;3.20;;;18.80;98.00;;;;;;5033215;28;20455;-71
2022/06/23 03:29:05;;;;;;;3.00;2.63;;;18.80;98.00;;;;;;5033045;28;20454;-71
2022/06/23 03:31:40;;;;;;;3.93;2.63;;;18.80;98.00;;;;;;5032985;28;20462;-71
2022/06/23 03:34:19;;;;;;;2.50;2.20;;;18.90;98.00;;;;;;5032965;28;20469;-71
2022/06/23 03:36:54;;;;;;;4.37;2.70;;;19.10;98.00;;;;;;5033050;28;20454;-71
2022/06/23 03:42:15;;;;;;;2.60;2.00;;;18.90;98.00;;;;;;5032848;28;20490;-71
2022/06/23 03:44:51;;;;;;;3.67;2.50;;;18.90;98.00;;;;;;5032822;28;20462;-71
2022/06/23 03:47:25;;;;;;;3.07;2.60;;;19.00;98.00;;;;;;5033043;28;20467;-71
2022/06/23 03:49:59;;;;;;;3.33;2.37;;;19.00;98.00;;;;;;5031378;28;20553;-71
2022/06/23 03:52:36;;;;;;;4.07;2.73;;;19.10;98.00;;;;;;5032563;28;20459;-71
2022/06/23 03:55:14;;;;;;;2.60;2.23;;;19.20;98.00;;;;;;5032645;28;20458;-71
2022/06/23 03:57:46;;;;;;;3.80;2.37;;;19.30;98.00;;;;;;5032882;28;20459;-71
2022/06/23 04:00:34;;;;;;;4.07;2.50;;;19.30;98.00;;;;;;5031654;28;20546;-71
2022/06/23 04:03:22;;;;;;;2.80;2.10;;;19.20;98.00;;;;;;5032377;28;20486;-71
2022/06/23 04:06:23;;;;;;;2.60;2.40;;;19.30;98.00;;;;;;5032461;28;20709;-71
2022/06/23 04:09:10;;;;;;;3.27;2.37;;;19.30;98.00;;;;;;4971148;28;20844;-71
2022/06/23 04:11:55;;;;;;;5.63;2.50;;;19.30;98.00;;;;;;5024452;28;20541;-71
2022/06/23 04:14:32;;;;;;;3.77;2.40;;;19.30;98.00;;;;;;5032243;28;20467;-71
2022/06/23 04:17:10;;;;;;;7.23;2.47;;;19.20;98.00;;;;;;5032275;28;20465;-71
2022/06/23 04:19:37;;;;;;;2.50;2.30;;;19.20;98.00;;;;;;5031916;28;20968;-71
2022/06/23 04:22:15;;;;;;;3.60;2.70;;;19.20;98.00;;;;;;5030801;28;20841;-71
2022/06/23 04:24:46;;;;;;;3.37;2.67;;;19.30;98.00;;;;;;5031987;28;20447;-71
2022/06/23 04:27:22;;;;;;;2.33;2.13;;;19.40;98.00;;;;;;5032160;28;20462;-71
2022/06/23 04:29:53;;;;;;;4.40;2.40;;;19.50;98.00;;;;;;5031885;28;20481;-71
2022/06/23 04:32:24;;;;;;;7.53;2.37;;;19.50;98.00;;;;;;5031256;28;20692;-71
2022/06/23 04:34:56;;;;;;;4.83;2.30;;;19.60;98.00;;;;;;5031796;28;20473;-71
2022/06/23 04:37:42;;;;;;;4.87;3.30;;;19.70;98.00;;;;;;5031959;28;20461;-71
2022/06/23 04:40:18;;;;;;;2.40;1.80;;;19.80;98.00;;;;;;5031719;28;20462;-71
2022/06/23 04:42:51;;;;;;;2.90;2.60;;;19.80;98.00;;;;;;5031670;28;20492;-71
2022/06/23 04:45:43;;;;;;;3.60;2.23;;;19.80;98.00;;;;;;5031756;28;21006;-71
2022/06/23 04:48:20;;;;;;;2.57;2.03;;;19.90;98.00;;;;;;5031684;28;20839;-71
2022/06/23 04:50:54;;;;;;;3.70;2.27;;;20.00;98.00;;;;;;5031501;28;20450;-70
2022/06/23 04:53:32;;;;;;;4.77;2.60;;;20.00;98.00;;;;;;5031757;28;20544;-71
2022/06/23 04:56:09;;;;;;;3.93;2.47;;;20.00;98.00;;;;;;5031547;28;20461;-71
2022/06/23 04:58:43;;;;;;;3.67;2.63;;;20.10;98.00;;;;;;5031734;28;20540;-71
2022/06/23 05:01:15;;;;;;;3.10;2.40;;;20.10;98.00;;;;;;5031617;28;20458;-71
2022/06/23 05:03:47;;;;;;;3.20;2.70;;;20.00;98.00;;;;;;5031634;28;20470;-71
2022/06/23 05:06:22;;;;;;;4.67;3.07;;;19.90;98.00;;;;;;5031387;28;20946;-71
2022/06/23 05:08:51;;;;;;;2.47;2.30;;;19.80;98.00;;;;;;5031413;28;20456;-71
2022/06/23 05:11:29;;;;;;;3.10;2.30;;;19.60;98.00;;;;;;5031251;28;20450;-71
2022/06/23 05:14:01;;;;;;;8.37;2.83;;;19.50;98.00;;;;;;5029958;28;20467;-71
2022/06/23 05:16:36;;;;;;;3.90;2.93;;;19.60;98.00;;;;;;5031312;28;20470;-71
2022/06/23 05:19:17;;;;;;;4.60;2.40;;;19.60;98.00;;;;;;5031129;28;20489;-71
2022/06/23 05:21:49;;;;;;;6.00;2.83;;;19.60;98.00;;;;;;5031292;28;20884;-71
2022/06/23 05:24:21;;;;;;;3.57;2.40;;;19.60;98.00;;;;;;5031204;28;20973;-71
2022/06/23 05:26:54;;;;;;;3.60;2.27;;;19.50;98.00;;;;;;5031190;28;20462;-71
2022/06/23 05:29:25;;;;;;;3.80;2.27;;;19.40;98.00;;;;;;5031193;28;20549;-71
2022/06/23 05:31:57;;;;;;;3.57;2.43;;;19.50;98.00;;;;;;5030960;28;20458;-71
2022/06/23 05:34:28;;;;;;;5.03;2.30;;;19.50;98.00;;;;;;5031081;28;20810;-70
2022/06/23 05:37:02;;;;;;;4.00;2.83;;;19.50;98.00;;;;;;5031245;28;20462;-71
2022/06/23 05:39:37;;;;;;;3.10;2.43;;;19.60;98.00;;;;;;5030005;28;20457;-71
2022/06/23 05:42:13;;;;;;;2.40;2.00;;;19.70;98.00;;;;;;5030066;28;20571;-71
2022/06/23 05:44:48;;;;;;;3.63;2.20;;;19.80;98.00;;;;;;5034093;28;20511;-71
2022/06/23 05:47:17;;;;;;;4.50;2.90;;;20.10;98.00;;;;;;5034986;28;20462;-71
2022/06/23 05:49:52;;;;;;;5.03;2.90;;;20.30;98.00;;;;;;5034860;28;20459;-71
2022/06/23 05:52:23;;;;;;;4.30;3.07;;;20.40;98.00;;;;;;5034943;28;20465;-71
2022/06/23 05:55:00;;;;;;;5.90;2.70;;;20.50;98.00;;;;;;5034877;28;20953;-71
2022/06/23 05:57:31;;;;;;;5.87;2.37;;;20.60;98.00;;;;;;5035055;28;20466;-71
2022/06/23 06:00:07;;;;;;;3.60;2.83;;;20.80;98.00;;;;;;5034947;28;20933;-71
2022/06/23 06:02:42;;;;;;;2.93;2.20;;;20.80;98.00;;;;;;5034979;28;20486;-71
2022/06/23 06:05:19;;;;;;;4.13;2.10;;;20.80;98.00;;;;;;5034957;28;20472;-71
2022/06/23 06:07:46;;;;;;;3.43;2.33;;;21.00;98.00;;;;;;5034621;28;20450;-71
2022/06/23 06:10:19;;;;;;;2.00;1.90;;;21.00;98.00;;;;;;5033358;28;20460;-71
2022/06/23 06:12:47;;;;;;;4.10;3.20;;;21.00;98.00;;;;;;5034362;28;20944;-71
2022/06/23 06:15:19;;;;;;;2.37;1.90;;;21.10;98.00;;;;;;5034597;28;20450;-71
2022/06/23 06:17:48;;;;;;;5.13;2.60;;;21.20;98.00;;;;;;5034540;28;20468;-71
2022/06/23 06:20:16;;;;;;;4.70;2.70;;;21.20;98.00;;;;;;5034343;28;20455;-71
2022/06/23 06:22:50;;;;;;;2.57;2.27;;;21.30;98.00;;;;;;5034356;28;20507;-71
2022/06/23 06:25:24;;;;;;;2.37;2.13;;;21.30;98.00;;;;;;5034385;28;20462;-71
2022/06/23 06:27:51;;;;;;;2.70;2.13;;;21.40;98.00;;;;;;5034398;28;20458;-70
2022/06/23 06:30:24;;;;;;;6.50;2.83;;;21.40;98.00;;;;;;5034589;28;20458;-71
2022/06/23 06:32:52;;;;;;;8.43;2.60;;;21.50;98.00;;;;;;5033637;28;20464;-71
2022/06/23 06:35:28;;;;;;;3.43;2.40;;;21.60;98.00;;;;;;5034707;28;20463;-71
2022/06/23 06:38:08;;;;;;;3.00;2.20;;;21.70;98.00;;;;;;5034601;28;20465;-70
2022/06/23 06:40:40;;;;;;;3.00;2.20;;;21.90;98.00;;;;;;5034559;28;20508;-71
2022/06/23 06:43:12;;;;;;;6.00;2.67;;;22.00;98.00;;;;;;5034470;28;20482;-71
2022/06/23 06:45:41;;;;;;;7.50;2.80;;;22.10;98.00;;;;;;5034602;28;20469;-71
2022/06/23 06:48:16;;;;;;;4.30;2.67;;;22.20;98.00;;;;;;5034614;28;20457;-71
2022/06/23 06:50:46;;;;;;;4.20;2.90;;;22.20;98.00;;;;;;5034754;28;20454;-71
2022/06/23 06:53:19;;;;;;;4.67;2.47;;;22.30;98.00;;;;;;5034536;28;20454;-71
2022/06/23 06:55:52;;;;;;;3.93;2.60;;;22.30;98.00;;;;;;5033628;28;20540;-71
2022/06/23 06:58:25;;;;;;;5.40;2.97;;;22.40;98.00;;;;;;5034622;28;20451;-71
2022/06/23 07:00:57;;;;;;;2.40;2.00;;;22.40;98.00;;;;;;5034123;28;20469;-70
2022/06/23 07:03:26;;;;;;;7.97;3.17;;;22.60;98.00;;;;;;5033673;28;20497;-70
2022/06/23 07:05:57;;;;;;;2.87;2.20;;;22.70;98.00;;;;;;5033906;28;20473;-71
2022/06/23 07:08:33;;;;;;;8.00;2.40;;;22.90;98.00;;;;;;5033749;28;20842;-71
2022/06/23 07:11:08;;;;;;;3.70;2.57;;;23.00;98.00;;;;;;5033553;28;20817;-71
2022/06/23 07:13:39;;;;;;;3.60;2.60;;;23.10;98.00;;;;;;5032297;28;20466;-71
2022/06/23 07:16:13;;;;;;;5.43;2.50;;;23.20;98.00;;;;;;5033352;28;20459;-70
2022/06/23 07:18:47;;;;;;;4.23;2.73;;;23.30;98.00;;;;;;5033274;28;20856;-71
2022/06/23 07:21:20;;;;;;;4.37;2.87;;;23.40;98.00;;;;;;5033300;28;20469;-72
2022/06/23 07:23:53;;;;;;;3.10;2.23;;;23.40;98.00;;;;;;5032751;28;20487;-71
2022/06/23 07:26:39;;;;;;;3.80;2.17;;;23.30;98.00;;;;;;5028839;28;21018;-71
2022/06/23 07:29:26;;;;;;;6.23;2.23;;;23.30;98.00;;;;;;5031060;28;20458;-71
2022/06/23 07:32:02;;;;;;;3.53;2.50;;;23.20;98.00;;;;;;5031279;28;20949;-70
2022/06/23 07:34:35;;;;;;;6.03;2.27;;;23.10;98.00;;;;;;5031209;28;20459;-67
2022/06/23 07:37:11;;;;;;;3.63;2.27;;;23.00;98.00;;;;;;5022868;28;20478;-69
2022/06/23 07:39:41;;;;;;;5.53;4.10;;;22.90;98.00;;;;;;5029470;28;21234;-70
2022/06/23 07:42:18;;;;;;;2.83;2.03;;;22.90;98.00;;;;;;5029999;28;20502;-73
2022/06/23 07:44:50;;;;;;;4.10;2.70;;;23.00;98.00;;;;;;5030912;28;20469;-73
2022/06/23 07:47:19;;;;;;;1.93;1.90;;;23.20;98.00;;;;;;5030646;28;20455;-69
2022/06/23 07:49:47;;;;;;;2.33;2.03;;;23.50;98.00;;;;;;5027858;28;20467;-68
2022/06/23 07:52:16;;;;;;;2.50;2.30;;;23.70;98.00;;;;;;5030270;28;20474;-67
2022/06/23 07:54:45;;;;;;;11.83;2.83;;;23.90;98.00;;;;;;5029535;28;20462;-66
2022/06/23 07:57:15;;;;;;;4.20;3.13;;;24.00;98.00;;;;;;5030480;28;20809;-69
2022/06/23 07:59:47;;;;;;;2.30;1.83;;;24.10;98.00;;;;;;5031354;28;20470;-69
2022/06/23 08:02:19;;;;;;;3.17;2.60;;;24.20;98.00;;;;;;5033009;28;20578;-72
2022/06/23 08:04:55;;;;;;;2.67;1.97;;;24.40;98.00;;;;;;5033622;28;20470;-69
2022/06/23 08:07:22;;;;;;;3.80;2.10;;;24.50;98.00;;;;;;5033431;28;20855;-69
2022/06/23 08:09:53;;;;;;;3.77;2.37;;;24.60;98.00;;;;;;5032989;28;21082;-71
2022/06/23 08:18:26;;;;;;;5.87;2.90;;;25.10;98.00;;;;;;5032814;28;21068;-71
2022/06/23 08:21:00;;;;;;;4.57;2.50;;;25.20;98.00;;;;;;5033150;28;20463;-70
2022/06/23 08:23:31;;;;;;;3.30;2.30;;;25.40;98.00;;;;;;5032791;28;21184;-69
2022/06/23 08:26:00;;;;;;;3.63;2.50;;;25.60;98.00;;;;;;5032671;28;20467;-69
2022/06/23 08:28:40;;;;;;;3.10;2.27;;;25.60;98.00;;;;;;5032983;28;20463;-71
2022/06/23 08:31:08;;;;;;;5.07;2.63;;;25.70;98.00;;;;;;5032577;28;20462;-70
2022/06/23 08:33:35;;;;;;;3.93;2.30;;;25.80;98.00;;;;;;5032796;28;20465;-71
2022/06/23 08:36:11;;;;;;;4.83;2.40;;;25.70;98.00;;;;;;5032480;28;20465;-69
2022/06/23 08:38:45;;;;;;;3.13;2.27;;;25.70;98.00;;;;;;5032852;28;20450;-72
2022/06/23 08:41:25;;;;;;;5.70;2.33;;;25.70;98.00;;;;;;5032469;28;20470;-71
2022/06/23 08:44:01;;;;;;;6.20;3.00;;;25.70;98.00;;;;;;5032440;28;20497;-69
2022/06/23 08:46:35;;;;;;;6.97;2.90;;;25.80;98.00;;;;;;5032720;28;20462;-72
2022/06/23 08:49:08;;;;;;;4.60;3.03;;;26.10;98.00;;;;;;5032507;28;20952;-70
2022/06/23 08:51:46;;;;;;;2.40;2.03;;;26.10;98.00;;;;;;5032353;28;20465;-69
2022/06/23 08:54:20;;;;;;;5.90;2.00;;;26.20;98.00;;;;;;5032336;28;20450;-69
2022/06/23 08:56:54;;;;;;;3.90;2.40;;;26.30;98.00;;;;;;5032236;28;20467;-71
2022/06/23 08:59:33;;;;;;;3.93;2.30;;;26.40;98.00;;;;;;5032407;28;20557;-71
2022/06/23 09:02:10;;;;;;;5.80;2.63;;;26.30;98.00;;;;;;5032307;28;20462;-71
2022/06/23 09:04:49;;;;;;;3.27;2.50;;;26.40;98.00;;;;;;5032297;28;20458;-69
2022/06/23 09:07:32;;;;;;;6.10;2.80;;;26.70;98.00;;;;;;5032295;28;20458;-71
2022/06/23 09:10:09;;;;;;;6.30;3.50;;;26.90;98.00;;;;;;5032056;28;20504;-71
2022/06/23 09:12:45;;;;;;;8.30;2.93;;;27.00;98.00;;;;;;5031907;28;20458;-69
2022/06/23 09:15:53;;;;;;;4.07;2.23;;;27.20;98.00;;;;;;5031848;28;20513;-69
2022/06/23 09:18:55;;;;;;;4.10;2.20;;;27.30;98.00;;;;;;5031411;28;20460;-69
2022/06/23 09:21:44;;;;;;;5.07;2.43;;;27.30;98.00;;;;;;5031989;28;20458;-71
2022/06/23 09:24:43;;;;;;;5.93;3.43;;;27.30;98.00;;;;;;4998457;28;20505;-71
2022/06/23 09:27:19;;;;;;;3.87;2.60;;;27.40;98.00;;;;;;5031770;28;20473;-70
2022/06/23 09:29:57;;;;;;;4.47;2.63;;;27.40;98.00;;;;;;5031691;28;20456;-69
2022/06/23 09:32:55;;;;;;;3.90;2.57;;;27.50;98.00;;;;;;5031409;28;20601;-72
2022/06/23 09:36:10;;;;;;;2.40;2.20;;;27.70;98.00;;;;;;5031953;28;20573;-68
2022/06/23 09:38:58;;;;;;;3.07;2.47;;;27.90;98.00;;;;;;4996873;28;20545;-68
2022/06/23 09:41:53;;;;;;;4.13;2.47;;;28.00;98.00;;;;;;5031962;28;20465;-69
2022/06/23 09:44:37;;;;;;;4.00;2.40;;;28.20;98.00;;;;;;5031517;28;21012;-70
2022/06/23 09:47:31;;;;;;;4.50;2.53;;;28.30;98.00;;;;;;5031828;28;20463;-71
2022/06/23 09:50:23;;;;;;;3.30;2.47;;;28.40;98.00;;;;;;5031762;28;20883;-71
2022/06/23 09:53:17;;;;;;;5.23;3.30;;;28.40;98.00;;;;;;5029236;28;20465;-69
2022/06/23 09:56:24;;;;;;;4.23;2.07;;;28.40;98.00;;;;;;5031700;28;20463;-71
2022/06/23 09:59:18;;;;;;;5.50;2.77;;;28.50;98.00;;;;;;5027135;28;20466;-71
2022/06/23 10:01:53;;;;;;;4.30;2.67;;;28.70;98.00;;;;;;5030030;28;20462;-70
2022/06/23 10:04:38;;;;;;;5.27;2.97;;;28.90;97.50;;;;;;5031787;28;20487;-69
2022/06/23 10:07:31;;;;;;;5.30;2.50;;;29.00;98.00;;;;;;5031333;28;20646;-70
2022/06/23 10:10:09;;;;;;;7.67;2.83;;;29.20;95.30;;;;;;5031515;28;20465;-70
2022/06/23 10:12:58;;;;;;;4.20;2.50;;;29.30;95.90;;;;;;5031399;28;20513;-69
2022/06/23 10:15:36;;;;;;;4.90;2.87;;;29.40;95.80;;;;;;5031607;28;20805;-71
2022/06/23 10:18:32;;;;;;;8.60;3.30;;;29.10;95.90;;;;;;5031257;28;20459;-70
2022/06/23 10:21:16;;;;;;;5.53;2.60;;;29.10;96.10;;;;;;5030015;28;20462;-70
2022/06/23 10:24:02;;;;;;;5.80;3.60;;;29.30;95.50;;;;;;5030149;28;21082;-70
2022/06/23 10:26:43;;;;;;;6.90;3.10;;;29.50;95.80;;;;;;5031405;28;20461;-68
2022/06/23 10:29:25;;;;;;;10.07;2.80;;;29.80;95.30;;;;;;5031378;28;20466;-68
2022/06/23 10:32:11;;;;;;;8.10;2.97;;;30.00;94.80;;;;;;5034315;28;20451;-71
2022/06/23 10:35:00;;;;;;;4.63;2.90;;;30.20;93.50;;;;;;5034185;28;20454;-71
2022/06/23 10:37:58;;;;;;;7.17;3.47;;;30.30;92.60;;;;;;5034677;28;20458;-70
2022/06/23 10:41:01;;;;;;;5.53;2.73;;;30.40;94.00;;;;;;5031679;28;20462;-70
2022/06/23 10:43:57;;;;;;;6.93;3.20;;;30.70;93.40;;;;;;5031393;28;20481;-68
2022/06/23 10:46:30;;;;;;;5.20;2.87;;;30.70;93.30;;;;;;5034719;28;20454;-72
2022/06/23 10:49:15;;;;;;;5.00;3.03;;;30.70;91.90;;;;;;5033895;28;20458;-72
2022/06/23 10:52:10;;;;;;;5.90;3.20;;;30.80;91.10;;;;;;5032647;28;20484;-72
2022/06/23 10:55:18;;;;;;;5.13;2.47;;;30.80;90.70;;;;;;5029063;28;20455;-73
2022/06/23 10:58:03;;;;;;;8.10;2.90;;;30.80;89.40;;;;;;5032483;28;20451;-73
2022/06/23 11:00:42;;;;;;;5.60;3.00;;;30.80;91.90;;;;;;5033779;28;20466;-72
2022/06/23 11:03:35;;;;;;;3.00;2.20;;;30.90;89.00;;;;;;5033571;28;20500;-68
2022/06/23 11:06:22;;;;;;;11.43;2.33;;;30.90;88.50;;;;;;5033804;28;20451;-72
2022/06/23 11:09:14;;;;;;;8.63;2.93;;;30.90;86.80;;;;;;5033302;28;20996;-76
2022/06/23 11:11:53;;;;;;;4.70;2.43;;;30.70;88.60;;;;;;5033744;28;20545;-75
2022/06/23 11:14:39;;;;;;;5.07;2.93;;;30.80;88.20;;;;;;5033482;28;20466;-76
2022/06/23 11:17:20;;;;;;;7.77;2.20;;;31.00;88.90;;;;;;5032318;28;20462;-74
2022/06/23 11:19:59;;;;;;;3.13;2.07;;;31.20;85.90;;;;;;5033777;28;20716;-76
2022/06/23 11:22:37;;;;;;;2.33;1.90;;;31.30;86.30;;;;;;5033179;28;20467;-78
2022/06/23 11:25:24;;;;;;;2.67;2.03;;;31.40;85.00;;;;;;5033367;28;20498;-76
2022/06/23 11:27:59;;;;;;;4.50;2.17;;;31.60;84.10;;;;;;5033358;28;20890;-75
2022/06/23 11:30:35;;;;;;;2.83;2.00;;;31.80;81.00;;;;;;5033074;28;20493;-75
2022/06/23 11:33:31;;;;;;;2.67;1.70;;;32.00;80.60;;;;;;5033189;28;20462;-76
2022/06/23 11:36:10;;;;;;;3.30;1.67;;;32.20;81.90;;;;;;5023087;28;20463;-77
2022/06/23 11:39:08;;;;;;;2.80;2.23;;;32.40;79.80;;;;;;5034549;28;21010;-76
2022/06/23 11:41:52;;;;;;;2.80;2.33;;;32.50;76.80;;;;;;5034706;28;20462;-77
2022/06/23 11:44:33;;;;;;;4.17;2.17;;;32.40;78.10;;;;;;5033331;28;20552;-76
2022/06/23 11:47:11;;;;;;;2.13;1.70;;;32.20;78.60;;;;;;5034502;28;20466;-76
2022/06/23 11:49:54;;;;;;;1.93;1.83;;;32.10;78.80;;;;;;5034387;28;20463;-76
2022/06/23 11:52:42;;;;;;;3.17;2.10;;;32.20;80.30;;;;;;5034423;28;20963;-76
2022/06/23 11:55:29;;;;;;;2.33;1.97;;;32.40;80.20;;;;;;5034736;28;20467;-77
2022/06/23 11:58:26;;;;;;;3.23;2.40;;;32.60;79.70;;;;;;5034921;28;20470;-76
2022/06/23 12:01:16;;;;;;;4.57;2.43;;;32.80;76.50;;;;;;5034529;28;20462;-76
2022/06/23 12:04:03;;;;;;;3.50;2.50;;;32.70;78.80;;;;;;5034566;28;21007;-77
2022/06/23 12:06:43;;;;;;;3.40;2.53;;;32.80;82.90;;;;;;5034938;28;20540;-77
2022/06/23 12:09:19;;;;;;;2.70;2.27;;;32.90;80.70;;;;;;5033872;28;20512;-77
2022/06/23 12:11:47;;;;;;;2.83;2.23;;;32.90;80.10;;;;;;5033163;28;20885;-79
2022/06/23 12:14:17;;;;;;;4.47;2.57;;;32.90;80.30;;;;;;5032748;28;20485;-75
2022/06/23 12:16:53;;;;;;;2.80;2.00;;;32.60;80.40;;;;;;5032406;28;20457;-75
2022/06/23 12:19:25;;;;;;;3.87;2.40;;;32.70;79.60;;;;;;5032861;28;20454;-77
2022/06/23 12:22:02;;;;;;;2.43;1.83;;;32.70;79.50;;;;;;5033454;28;20836;-77
2022/06/23 12:24:36;;;;;;;3.30;2.03;;;32.90;78.20;;;;;;5033166;28;20858;-77
2022/06/23 12:27:15;;;;;;;4.50;2.50;;;33.10;77.20;;;;;;5033780;28;20885;-77
2022/06/23 12:29:51;;;;;;;11.27;2.50;;;33.30;78.60;;;;;;5033046;28;20553;-77
2022/06/23 12:32:22;;;;;;;4.33;2.37;;;33.50;78.60;;;;;;5033065;28;20456;-77
2022/06/23 12:34:58;;;;;;;3.13;2.40;;;33.50;78.70;;;;;;5032553;28;20465;-77
2022/06/23 12:37:37;;;;;;;4.07;2.57;;;33.60;76.90;;;;;;5033106;28;20497;-78
2022/06/23 12:40:08;;;;;;;2.23;1.87;;;33.80;77.30;;;;;;5032694;28;20458;-77
2022/06/23 12:42:40;;;;;;;12.47;2.73;;;33.80;76.60;;;;;;5032997;28;20868;-78
2022/06/23 12:45:46;;;;;;;2.83;2.17;;;33.90;76.70;;;;;;5032288;28;20482;-77
2022/06/23 12:48:38;;;;;;;4.10;2.30;;;34.20;76.00;;;;;;5032386;28;20541;-77
2022/06/23 12:51:15;;;;;;;2.57;1.93;;;34.30;73.40;;;;;;5031793;28;20521;-74
2022/06/23 12:54:01;;;;;;;4.37;2.63;;;34.10;73.20;;;;;;5031348;28;20465;-75
2022/06/23 12:56:48;;;;;;;3.33;2.33;;;34.10;76.90;;;;;;5031849;28;20494;-74
2022/06/23 12:59:30;;;;;;;4.07;2.30;;;34.10;75.60;;;;;;5031767;28;20462;-75
2022/06/23 13:02:07;;;;;;;6.10;2.30;;;33.90;73.00;;;;;;5031687;28;20548;-75
2022/06/23 13:04:46;;;;;;;3.40;2.63;;;34.00;73.90;;;;;;5031504;28;21012;-76
2022/06/23 13:07:20;;;;;;;2.23;1.90;;;34.20;72.90;;;;;;5031543;28;20561;-74
2022/06/23 13:09:56;;;;;;;3.23;2.33;;;34.40;73.50;;;;;;5031851;28;20552;-75
2022/06/23 13:12:29;;;;;;;2.43;2.03;;;34.70;71.30;;;;;;5030606;28;20468;-75
2022/06/23 13:15:05;;;;;;;2.87;2.20;;;34.70;71.80;;;;;;5031539;28;20457;-75
2022/06/23 13:17:40;;;;;;;2.40;1.70;;;34.80;70.40;;;;;;5031650;28;20465;-74
2022/06/23 13:20:20;;;;;;;4.27;2.90;;;34.80;71.70;;;;;;5031412;28;20473;-75
2022/06/23 13:22:51;;;;;;;3.43;2.17;;;34.90;71.70;;;;;;5031513;28;20454;-75
2022/06/23 13:25:25;;;;;;;4.20;2.70;;;35.20;71.00;;;;;;5031209;28;20509;-75
2022/06/23 13:27:55;;;;;;;2.37;1.90;;;35.40;70.50;;;;;;5031532;28;20848;-75
2022/06/23 13:30:26;;;;;;;4.47;2.43;;;35.50;69.30;;;;;;5031232;28;20457;-76
2022/06/23 13:33:04;;;;;;;3.20;2.07;;;35.60;70.60;;;;;;5031298;28;20676;-72
2022/06/23 13:35:36;;;;;;;4.50;2.30;;;35.60;72.00;;;;;;5031284;28;20463;-71
2022/06/23 13:38:26;;;;;;;3.17;2.27;;;35.50;70.40;;;;;;5031325;28;20463;-72
2022/06/23 13:40:59;;;;;;;4.40;2.20;;;34.90;71.40;;;;;;5029706;28;20462;-72
2022/06/23 13:43:34;;;;;;;2.90;2.10;;;34.70;72.00;;;;;;5031096;28;20462;-71
2022/06/23 13:46:07;;;;;;;2.50;1.90;;;34.50;72.10;;;;;;5031014;28;20541;-73
2022/06/23 13:48:42;;;;;;;6.80;2.43;;;34.50;71.70;;;;;;5031231;28;20454;-71